Time;durP1;ratioP1;P1;durP2;ratioP2;P2;SDS_P1;SDS_P2;PMS_P1;PMS_P2;Temp;Humidity;BMP_temperature;BMP_pressure;BME280_temperature;BME280_humidity;BME280_pressure;Samples;Min_cycle;Max_cycle;Signal;HPM_P1;HPM_P2
2022/06/04 00:00:08;;;;;;;4.68;3.83;;;;;;;;;;517026;28;1431;-86
2022/06/04 00:00:25;;;;;;;4.05;3.60;;;;;;;;;;518434;28;1515;-86
2022/06/04 00:00:43;;;;;;;4.50;3.75;;;;;;;;;;516690;28;1397;-86
2022/06/04 00:01:00;;;;;;;4.25;3.60;;;;;;;;;;516700;28;1568;-86
2022/06/04 00:01:15;;;;;;;3.67;3.38;;;;;;;;;;515101;28;1378;-86
2022/06/04 00:01:31;;;;;;;4.03;3.65;;;;;;;;;;512120;28;1554;-86
2022/06/04 00:01:47;;;;;;;4.03;3.70;;;;;;;;;;512357;28;1405;-86
2022/06/04 00:02:04;;;;;;;3.83;3.53;;;;;;;;;;512834;28;1599;-86
2022/06/04 00:02:19;;;;;;;4.38;3.53;;;;;;;;;;512213;28;1438;-87
2022/06/04 00:02:43;;;;;;;3.95;3.50;;;;;;;;;;511879;28;1592;-86
2022/06/04 00:02:59;;;;;;;3.60;3.30;;;;;;;;;;513217;28;1763;-86
2022/06/04 00:03:14;;;;;;;3.72;3.42;;;;;;;;;;513795;28;1611;-86
2022/06/04 00:03:30;;;;;;;4.07;3.47;;;;;;;;;;515501;28;1492;-86
2022/06/04 00:03:46;;;;;;;4.20;3.60;;;;;;;;;;516256;28;1547;-86
2022/06/04 00:04:02;;;;;;;3.80;3.50;;;;;;;;;;514230;28;1485;-86
2022/06/04 00:04:17;;;;;;;3.83;3.42;;;;;;;;;;512944;28;1448;-86
2022/06/04 00:04:32;;;;;;;3.97;3.50;;;;;;;;;;514838;28;1411;-86
2022/06/04 00:04:48;;;;;;;3.60;3.30;;;;;;;;;;512368;28;1528;-85
2022/06/04 00:05:04;;;;;;;4.77;3.30;;;;;;;;;;515266;28;1482;-86
2022/06/04 00:05:26;;;;;;;5.35;3.55;;;;;;;;;;514377;28;1535;-86
2022/06/04 00:05:45;;;;;;;4.47;3.58;;;;;;;;;;516247;28;1464;-86
2022/06/04 00:06:01;;;;;;;4.15;3.75;;;;;;;;;;516684;28;1384;-86
2022/06/04 00:06:16;;;;;;;4.18;3.42;;;;;;;;;;514452;28;1876;-85
2022/06/04 00:06:31;;;;;;;4.60;3.43;;;;;;;;;;513109;28;1398;-85
2022/06/04 00:06:48;;;;;;;4.00;3.50;;;;;;;;;;516979;28;1617;-86
2022/06/04 00:07:04;;;;;;;4.10;3.65;;;;;;;;;;518674;28;1590;-87
2022/06/04 00:07:19;;;;;;;4.15;3.75;;;;;;;;;;517070;28;1696;-86
2022/06/04 00:07:35;;;;;;;4.10;3.70;;;;;;;;;;517485;28;1478;-86
2022/06/04 00:07:51;;;;;;;3.85;3.50;;;;;;;;;;517977;28;1421;-86
2022/06/04 00:08:09;;;;;;;3.97;3.58;;;;;;;;;;514874;28;1917;-86
2022/06/04 00:08:26;;;;;;;3.92;3.55;;;;;;;;;;515885;28;1523;-86
2022/06/04 00:08:42;;;;;;;4.03;3.45;;;;;;;;;;516888;28;1423;-86
2022/06/04 00:08:57;;;;;;;3.90;3.50;;;;;;;;;;516768;28;1461;-86
2022/06/04 00:09:15;;;;;;;3.97;3.60;;;;;;;;;;516459;28;1569;-86
2022/06/04 00:09:30;;;;;;;3.78;3.40;;;;;;;;;;516179;28;1551;-86
2022/06/04 00:15:29;;;;;;;3.90;3.50;;;;;;;;;;517246;28;1510;-85
2022/06/04 00:15:29;;;;;;;3.80;3.40;;;;;;;;;;521332;28;1653;-85
2022/06/04 00:15:46;;;;;;;4.00;3.60;;;;;;;;;;522891;28;1616;-85
2022/06/04 00:16:02;;;;;;;3.83;3.47;;;;;;;;;;520314;28;1437;-85
2022/06/04 00:16:20;;;;;;;3.90;3.40;;;;;;;;;;518265;28;1613;-85
2022/06/04 00:16:35;;;;;;;4.68;3.47;;;;;;;;;;516392;28;1495;-85
2022/06/04 00:16:51;;;;;;;4.73;3.67;;;;;;;;;;516529;28;1562;-86
2022/06/04 00:17:06;;;;;;;3.83;3.53;;;;;;;;;;516833;28;1578;-86
2022/06/04 00:17:22;;;;;;;3.60;3.30;;;;;;;;;;516501;28;1578;-85
2022/06/04 00:17:37;;;;;;;3.50;3.20;;;;;;;;;;515463;28;1525;-85
2022/06/04 00:17:53;;;;;;;3.60;3.30;;;;;;;;;;516712;28;1572;-85
2022/06/04 00:18:08;;;;;;;3.70;3.40;;;;;;;;;;517325;28;1525;-85
2022/06/04 00:18:24;;;;;;;3.80;3.47;;;;;;;;;;519000;28;1489;-85
2022/06/04 00:18:40;;;;;;;3.85;3.45;;;;;;;;;;519104;28;1519;-85
2022/06/04 00:18:56;;;;;;;3.95;3.55;;;;;;;;;;516809;28;1452;-85
2022/06/04 00:19:12;;;;;;;4.03;3.60;;;;;;;;;;516520;28;1565;-86
2022/06/04 00:19:27;;;;;;;3.80;3.40;;;;;;;;;;516691;28;1612;-85
2022/06/04 00:19:42;;;;;;;3.63;3.33;;;;;;;;;;516978;28;1509;-85
2022/06/04 00:19:58;;;;;;;3.70;3.40;;;;;;;;;;518750;28;1485;-85
2022/06/04 00:20:13;;;;;;;3.90;3.50;;;;;;;;;;518596;28;1417;-85
2022/06/04 00:20:29;;;;;;;3.72;3.40;;;;;;;;;;517126;28;1455;-85
2022/06/04 00:20:45;;;;;;;3.80;3.50;;;;;;;;;;518861;28;1642;-85
2022/06/04 00:21:00;;;;;;;4.10;3.70;;;;;;;;;;518846;28;1637;-86
2022/06/04 00:21:16;;;;;;;3.90;3.50;;;;;;;;;;518351;28;1690;-85
2022/06/04 00:21:31;;;;;;;4.32;3.40;;;;;;;;;;516662;28;1490;-86
2022/06/04 00:21:48;;;;;;;4.20;3.33;;;;;;;;;;517250;28;1452;-85
2022/06/04 00:22:04;;;;;;;3.72;3.40;;;;;;;;;;517455;28;1592;-84
2022/06/04 00:22:20;;;;;;;3.80;3.50;;;;;;;;;;520171;28;1340;-85
2022/06/04 00:22:35;;;;;;;3.70;3.40;;;;;;;;;;519291;28;1565;-86
2022/06/04 00:22:57;;;;;;;3.53;3.22;;;;;;;;;;519123;28;1389;-86
2022/06/04 00:23:12;;;;;;;3.72;3.20;;;;;;;;;;518985;28;1379;-85
2022/06/04 00:23:28;;;;;;;3.80;3.25;;;;;;;;;;517977;28;1554;-85
2022/06/04 00:23:44;;;;;;;3.90;3.30;;;;;;;;;;517509;28;1702;-85
2022/06/04 00:23:59;;;;;;;3.83;3.43;;;;;;;;;;519152;28;1468;-85
2022/06/04 00:24:14;;;;;;;3.70;3.40;;;;;;;;;;519778;28;1152;-85
2022/06/04 00:24:30;;;;;;;3.67;3.30;;;;;;;;;;517088;28;1538;-85
2022/06/04 00:24:45;;;;;;;3.67;3.20;;;;;;;;;;515026;28;1473;-86
2022/06/04 00:25:00;;;;;;;3.70;3.40;;;;;;;;;;514523;28;1437;-85
2022/06/04 00:25:16;;;;;;;3.63;3.33;;;;;;;;;;516690;28;1480;-86
2022/06/04 00:25:33;;;;;;;3.73;3.43;;;;;;;;;;516978;28;1444;-85
2022/06/04 00:25:53;;;;;;;3.97;3.42;;;;;;;;;;516654;28;1511;-85
2022/06/04 00:26:13;;;;;;;4.68;3.45;;;;;;;;;;514401;28;1444;-85
2022/06/04 00:26:28;;;;;;;3.72;3.40;;;;;;;;;;516657;28;1448;-85
2022/06/04 00:26:44;;;;;;;3.57;3.27;;;;;;;;;;518192;28;1609;-85
2022/06/04 00:26:59;;;;;;;3.95;3.30;;;;;;;;;;519046;28;1431;-85
2022/06/04 00:27:17;;;;;;;4.07;3.50;;;;;;;;;;518406;28;1724;-86
2022/06/04 00:27:33;;;;;;;3.85;3.55;;;;;;;;;;517984;28;1586;-85
2022/06/04 00:27:50;;;;;;;3.80;3.50;;;;;;;;;;517681;28;1654;-87
2022/06/04 00:28:07;;;;;;;3.70;3.40;;;;;;;;;;517280;28;1971;-85
2022/06/04 00:28:24;;;;;;;3.67;3.38;;;;;;;;;;517075;28;1577;-85
2022/06/04 00:28:40;;;;;;;3.90;3.60;;;;;;;;;;517262;28;1361;-85
2022/06/04 00:28:56;;;;;;;4.00;3.60;;;;;;;;;;518561;28;1503;-85
2022/06/04 00:29:12;;;;;;;4.15;3.60;;;;;;;;;;518694;28;1459;-86
2022/06/04 00:29:31;;;;;;;3.63;3.33;;;;;;;;;;520525;28;1459;-86
2022/06/04 00:29:47;;;;;;;3.63;3.33;;;;;;;;;;522467;28;1364;-86
2022/06/04 00:30:03;;;;;;;3.65;3.35;;;;;;;;;;520873;28;1681;-86
2022/06/04 00:30:18;;;;;;;3.45;3.15;;;;;;;;;;522800;28;1528;-85
2022/06/04 00:30:34;;;;;;;3.50;3.20;;;;;;;;;;521043;28;1416;-86
2022/06/04 00:30:51;;;;;;;3.72;3.30;;;;;;;;;;520999;28;1648;-85
2022/06/04 00:31:07;;;;;;;3.80;3.40;;;;;;;;;;520911;28;1549;-86
2022/06/04 00:31:22;;;;;;;3.70;3.40;;;;;;;;;;520727;28;1560;-85
2022/06/04 00:31:38;;;;;;;3.73;3.43;;;;;;;;;;521140;28;1435;-86
2022/06/04 00:31:53;;;;;;;3.67;3.38;;;;;;;;;;521666;28;1473;-86
2022/06/04 00:32:09;;;;;;;3.63;3.33;;;;;;;;;;523056;28;1548;-85
2022/06/04 00:32:24;;;;;;;3.90;3.50;;;;;;;;;;520639;28;1508;-86
2022/06/04 00:32:40;;;;;;;3.60;3.30;;;;;;;;;;521262;28;1639;-85
2022/06/04 00:32:55;;;;;;;3.58;3.28;;;;;;;;;;520752;28;1572;-86
2022/06/04 00:33:12;;;;;;;3.83;3.40;;;;;;;;;;520921;28;1540;-87
2022/06/04 00:33:28;;;;;;;3.65;3.25;;;;;;;;;;520799;28;1451;-87
2022/06/04 00:33:43;;;;;;;3.65;3.30;;;;;;;;;;518416;28;1680;-86
2022/06/04 00:33:59;;;;;;;3.57;3.27;;;;;;;;;;516845;28;1469;-87
2022/06/04 00:34:15;;;;;;;3.60;3.30;;;;;;;;;;516733;28;1601;-86
2022/06/04 00:34:30;;;;;;;4.07;3.47;;;;;;;;;;518698;28;1425;-85
2022/06/04 00:34:46;;;;;;;4.13;3.47;;;;;;;;;;516811;28;1513;-86
2022/06/04 00:35:06;;;;;;;4.63;3.40;;;;;;;;;;516557;28;1602;-86
2022/06/04 00:35:21;;;;;;;4.20;3.50;;;;;;;;;;516539;28;1528;-86
2022/06/04 00:35:37;;;;;;;4.50;3.30;;;;;;;;;;514717;28;1546;-86
2022/06/04 00:35:55;;;;;;;4.25;3.30;;;;;;;;;;513654;28;1766;-86
2022/06/04 00:36:11;;;;;;;3.78;3.47;;;;;;;;;;517534;28;1529;-86
2022/06/04 00:36:26;;;;;;;3.70;3.40;;;;;;;;;;518529;28;1685;-86
2022/06/04 00:36:41;;;;;;;3.60;3.30;;;;;;;;;;519166;28;1532;-86
2022/06/04 00:36:59;;;;;;;3.67;3.37;;;;;;;;;;518064;28;1898;-85
2022/06/04 00:37:14;;;;;;;3.78;3.40;;;;;;;;;;516263;28;1552;-86
2022/06/04 00:37:33;;;;;;;4.70;3.63;;;;;;;;;;514670;28;1466;-86
2022/06/04 00:37:49;;;;;;;4.05;3.55;;;;;;;;;;514638;28;1405;-87
2022/06/04 00:38:06;;;;;;;4.00;3.60;;;;;;;;;;516461;28;1519;-85
2022/06/04 00:38:23;;;;;;;4.30;3.72;;;;;;;;;;516322;28;1884;-86
2022/06/04 00:38:39;;;;;;;4.05;3.50;;;;;;;;;;516861;28;1381;-86
2022/06/04 00:38:54;;;;;;;3.70;3.30;;;;;;;;;;516853;28;1365;-86
2022/06/04 00:39:11;;;;;;;3.90;3.50;;;;;;;;;;514701;28;1495;-86
2022/06/04 00:39:26;;;;;;;4.10;3.70;;;;;;;;;;516605;28;1639;-85
2022/06/04 00:39:42;;;;;;;4.18;3.75;;;;;;;;;;514484;28;1436;-86
2022/06/04 00:39:58;;;;;;;4.03;3.63;;;;;;;;;;515013;28;1453;-86
2022/06/04 00:40:24;;;;;;;3.75;3.38;;;;;;;;;;515360;28;1567;-86
2022/06/04 00:40:49;;;;;;;4.60;3.83;;;;;;;;;;516570;28;1475;-86
2022/06/04 00:41:10;;;;;;;3.90;3.60;;;;;;;;;;517498;28;1643;-85
2022/06/04 00:41:39;;;;;;;4.10;3.80;;;;;;;;;;520102;28;1509;-86
2022/06/04 00:42:16;;;;;;;4.00;3.60;;;;;;;;;;522625;28;1517;-86
2022/06/04 00:42:32;;;;;;;4.10;3.75;;;;;;;;;;522907;28;1701;-86
2022/06/04 00:42:48;;;;;;;4.10;3.70;;;;;;;;;;520225;28;1513;-86
2022/06/04 00:43:03;;;;;;;4.72;3.47;;;;;;;;;;517992;28;1656;-87
2022/06/04 00:43:20;;;;;;;4.47;3.50;;;;;;;;;;518337;28;1479;-86
2022/06/04 00:43:55;;;;;;;4.10;3.70;;;;;;;;;;516408;28;1455;-87
2022/06/04 00:44:10;;;;;;;4.25;3.80;;;;;;;;;;519223;28;1554;-86
2022/06/04 00:44:31;;;;;;;4.07;3.75;;;;;;;;;;519160;28;1658;-86
2022/06/04 00:45:21;;;;;;;4.10;3.80;;;;;;;;;;519341;28;1452;-86
2022/06/04 00:45:37;;;;;;;4.85;3.80;;;;;;;;;;521517;28;1974;-86
2022/06/04 00:46:13;;;;;;;4.30;3.90;;;;;;;;;;520739;28;1640;-86
2022/06/04 00:46:41;;;;;;;4.07;3.67;;;;;;;;;;522618;28;1568;-86
2022/06/04 00:47:23;;;;;;;4.30;3.90;;;;;;;;;;522738;28;1661;-86
2022/06/04 00:47:40;;;;;;;4.47;3.90;;;;;;;;;;522563;28;1606;-86
2022/06/04 00:47:58;;;;;;;4.45;4.05;;;;;;;;;;523196;28;1362;-86
2022/06/04 00:48:13;;;;;;;4.35;3.95;;;;;;;;;;522684;28;1953;-87
2022/06/04 00:48:29;;;;;;;4.60;4.10;;;;;;;;;;520926;28;1449;-86
2022/06/04 00:48:44;;;;;;;5.05;4.30;;;;;;;;;;521155;28;1462;-86
2022/06/04 00:48:59;;;;;;;5.00;4.20;;;;;;;;;;520905;28;1911;-86
2022/06/04 00:49:18;;;;;;;5.35;4.00;;;;;;;;;;521068;28;1510;-86
2022/06/04 00:49:34;;;;;;;4.50;3.88;;;;;;;;;;521065;28;1662;-86
2022/06/04 00:49:50;;;;;;;4.40;4.00;;;;;;;;;;520734;28;1482;-86
2022/06/04 00:50:08;;;;;;;4.53;4.03;;;;;;;;;;518729;28;1464;-86
2022/06/04 00:50:23;;;;;;;4.47;4.07;;;;;;;;;;519329;28;1466;-87
2022/06/04 00:50:40;;;;;;;4.60;4.10;;;;;;;;;;521206;28;1761;-86
2022/06/04 00:50:56;;;;;;;4.40;4.00;;;;;;;;;;518451;28;1443;-86
2022/06/04 00:51:11;;;;;;;4.55;4.07;;;;;;;;;;517058;28;1555;-86
2022/06/04 00:51:27;;;;;;;4.30;3.90;;;;;;;;;;514365;28;1551;-86
2022/06/04 00:51:46;;;;;;;4.40;4.00;;;;;;;;;;514638;28;1549;-86
2022/06/04 00:52:02;;;;;;;4.75;4.00;;;;;;;;;;516592;28;1423;-87
2022/06/04 00:52:19;;;;;;;4.60;4.10;;;;;;;;;;516913;28;1471;-86
2022/06/04 00:52:35;;;;;;;6.00;4.18;;;;;;;;;;514243;28;1496;-86
2022/06/04 00:52:53;;;;;;;6.10;4.03;;;;;;;;;;516640;28;1491;-87
2022/06/04 00:53:10;;;;;;;4.57;3.80;;;;;;;;;;516809;28;1515;-86
2022/06/04 00:53:25;;;;;;;4.28;3.85;;;;;;;;;;518629;28;1640;-87
2022/06/04 00:53:41;;;;;;;4.30;3.90;;;;;;;;;;516632;28;1591;-87
2022/06/04 00:53:57;;;;;;;4.57;3.80;;;;;;;;;;516494;28;1620;-87
2022/06/04 00:54:13;;;;;;;4.63;3.80;;;;;;;;;;516574;28;1495;-87
2022/06/04 00:54:29;;;;;;;3.95;3.65;;;;;;;;;;517935;28;1394;-86
2022/06/04 00:54:47;;;;;;;3.90;3.60;;;;;;;;;;518514;28;1525;-86
2022/06/04 00:55:05;;;;;;;4.00;3.70;;;;;;;;;;518667;28;1438;-87
2022/06/04 00:55:21;;;;;;;4.18;3.70;;;;;;;;;;516548;28;1459;-87
2022/06/04 00:55:48;;;;;;;4.32;3.72;;;;;;;;;;516754;28;1492;-86
2022/06/04 00:56:24;;;;;;;3.92;3.60;;;;;;;;;;513943;28;1496;-86
2022/06/04 00:56:48;;;;;;;4.18;3.78;;;;;;;;;;516202;28;1456;-86
2022/06/04 00:57:17;;;;;;;4.20;3.80;;;;;;;;;;516366;28;1385;-86
2022/06/04 00:58:10;;;;;;;4.20;3.80;;;;;;;;;;519027;28;1582;-86
2022/06/04 00:58:56;;;;;;;4.28;3.70;;;;;;;;;;509809;28;1569;-85
2022/06/04 00:59:49;;;;;;;5.55;4.00;;;;;;;;;;520822;28;1574;-87
2022/06/04 01:00:07;;;;;;;3.97;3.65;;;;;;;;;;510639;29;1827;-86
2022/06/04 01:00:26;;;;;;;4.20;3.80;;;;;;;;;;511284;28;1606;-86
2022/06/04 01:00:52;;;;;;;4.93;4.30;;;;;;;;;;519021;28;1509;-86
2022/06/04 01:01:22;;;;;;;4.55;4.00;;;;;;;;;;517984;28;1451;-86
2022/06/04 01:01:48;;;;;;;4.47;3.90;;;;;;;;;;518555;28;1416;-86
2022/06/04 01:02:30;;;;;;;4.13;3.72;;;;;;;;;;520571;28;1454;-86
2022/06/04 01:03:21;;;;;;;4.15;3.75;;;;;;;;;;522897;28;1661;-85
2022/06/04 01:03:52;;;;;;;4.20;3.80;;;;;;;;;;522884;28;1509;-87
2022/06/04 01:04:10;;;;;;;4.45;4.05;;;;;;;;;;523281;28;1417;-86
2022/06/04 01:04:47;;;;;;;4.60;4.20;;;;;;;;;;523343;28;1379;-86
2022/06/04 01:05:21;;;;;;;3.85;3.50;;;;;;;;;;520339;28;1411;-86
2022/06/04 01:05:49;;;;;;;4.00;3.70;;;;;;;;;;519875;28;1533;-86
2022/06/04 01:06:04;;;;;;;4.65;3.88;;;;;;;;;;521488;28;1418;-86
2022/06/04 01:06:33;;;;;;;4.73;3.90;;;;;;;;;;521075;28;1505;-85
2022/06/04 01:06:58;;;;;;;5.28;3.80;;;;;;;;;;518762;28;1409;-86
2022/06/04 01:07:25;;;;;;;4.78;3.95;;;;;;;;;;519276;28;1409;-86
2022/06/04 01:07:55;;;;;;;4.38;3.88;;;;;;;;;;517044;28;1646;-86
2022/06/04 01:08:36;;;;;;;4.18;3.78;;;;;;;;;;517091;28;1910;-85
2022/06/04 01:09:11;;;;;;;4.20;3.90;;;;;;;;;;517099;28;1444;-86
2022/06/04 01:09:50;;;;;;;3.80;3.50;;;;;;;;;;517572;28;1570;-86
2022/06/04 01:10:14;;;;;;;4.47;3.83;;;;;;;;;;519715;28;1452;-87
2022/06/04 01:10:32;;;;;;;4.10;3.60;;;;;;;;;;516278;28;1436;-86
2022/06/04 01:11:11;;;;;;;4.20;3.80;;;;;;;;;;516267;28;1701;-86
2022/06/04 01:11:34;;;;;;;3.70;3.40;;;;;;;;;;515747;28;1604;-86
2022/06/04 01:12:19;;;;;;;3.90;3.58;;;;;;;;;;512933;28;1686;-86
2022/06/04 01:12:44;;;;;;;5.50;4.00;;;;;;;;;;517879;28;1387;-86
2022/06/04 01:13:08;;;;;;;4.28;3.80;;;;;;;;;;519771;28;1431;-86
2022/06/04 01:13:30;;;;;;;3.90;3.50;;;;;;;;;;518958;28;1498;-87
2022/06/04 01:14:11;;;;;;;4.22;3.70;;;;;;;;;;514936;28;1672;-86
2022/06/04 01:14:35;;;;;;;4.20;3.80;;;;;;;;;;506124;29;1796;-87
2022/06/04 01:15:09;;;;;;;4.43;3.88;;;;;;;;;;513119;28;1430;-86
2022/06/04 01:15:59;;;;;;;4.90;3.80;;;;;;;;;;517184;28;1517;-87
2022/06/04 01:16:17;;;;;;;8.48;3.55;;;;;;;;;;519479;28;1498;-87
2022/06/04 01:16:47;;;;;;;4.00;3.65;;;;;;;;;;519425;28;1602;-86
2022/06/04 01:17:28;;;;;;;5.35;4.07;;;;;;;;;;520513;28;1498;-86
2022/06/04 01:18:10;;;;;;;4.05;3.70;;;;;;;;;;514578;28;1492;-86
2022/06/04 01:18:47;;;;;;;4.35;3.80;;;;;;;;;;514811;28;1505;-86
2022/06/04 01:19:28;;;;;;;4.25;3.95;;;;;;;;;;519637;28;1411;-85
2022/06/04 01:19:46;;;;;;;4.00;3.60;;;;;;;;;;517089;28;1622;-86
2022/06/04 01:20:09;;;;;;;4.10;3.70;;;;;;;;;;521610;28;1512;-85
2022/06/04 01:20:37;;;;;;;4.30;3.88;;;;;;;;;;521370;28;1506;-86
2022/06/04 01:21:24;;;;;;;4.40;4.03;;;;;;;;;;519484;28;1431;-87
2022/06/04 01:22:04;;;;;;;4.22;3.83;;;;;;;;;;519596;28;1378;-86
2022/06/04 01:22:28;;;;;;;4.40;4.00;;;;;;;;;;523434;28;1463;-81
2022/06/04 01:23:00;;;;;;;3.92;3.60;;;;;;;;;;522904;28;1407;-81
2022/06/04 01:23:53;;;;;;;4.85;3.80;;;;;;;;;;523069;28;1749;-81
2022/06/04 01:24:17;;;;;;;4.95;3.90;;;;;;;;;;522058;28;1601;-81
2022/06/04 01:25:19;;;;;;;4.50;4.10;;;;;;;;;;523267;28;1508;-81
2022/06/04 01:25:52;;;;;;;4.40;4.00;;;;;;;;;;519885;28;1738;-81
2022/06/04 01:26:38;;;;;;;5.03;4.30;;;;;;;;;;522466;28;1470;-81
2022/06/04 01:27:01;;;;;;;4.63;4.13;;;;;;;;;;522423;28;1514;-81
2022/06/04 01:27:28;;;;;;;4.75;4.32;;;;;;;;;;521211;28;1576;-81
2022/06/04 01:27:45;;;;;;;4.60;4.10;;;;;;;;;;517964;28;1669;-81
2022/06/04 01:28:07;;;;;;;4.53;4.13;;;;;;;;;;519925;28;1499;-81
2022/06/04 01:28:26;;;;;;;4.30;3.90;;;;;;;;;;519351;28;1560;-82
2022/06/04 01:28:50;;;;;;;4.30;3.90;;;;;;;;;;516365;28;1577;-82
2022/06/04 01:29:11;;;;;;;4.43;4.03;;;;;;;;;;518060;28;1450;-81
2022/06/04 01:29:52;;;;;;;4.82;4.22;;;;;;;;;;519714;28;1498;-81
2022/06/04 01:30:17;;;;;;;4.80;4.30;;;;;;;;;;514831;28;1476;-81
2022/06/04 01:30:50;;;;;;;4.50;4.10;;;;;;;;;;521524;28;1467;-81
2022/06/04 01:31:09;;;;;;;4.30;3.90;;;;;;;;;;522250;28;1561;-81
2022/06/04 01:31:34;;;;;;;5.75;4.22;;;;;;;;;;522571;28;1414;-81
2022/06/04 01:31:55;;;;;;;5.20;4.28;;;;;;;;;;519315;28;1518;-81
2022/06/04 01:32:19;;;;;;;4.68;4.15;;;;;;;;;;520323;28;1507;-81
2022/06/04 01:32:42;;;;;;;4.32;4.00;;;;;;;;;;521878;28;1518;-81
2022/06/04 01:33:06;;;;;;;4.35;3.95;;;;;;;;;;522190;28;1358;-81
2022/06/04 01:33:28;;;;;;;4.40;4.00;;;;;;;;;;521480;28;1451;-81
2022/06/04 01:33:52;;;;;;;4.30;3.90;;;;;;;;;;520625;28;1554;-81
2022/06/04 01:34:11;;;;;;;4.53;4.13;;;;;;;;;;521447;28;1677;-81
2022/06/04 01:34:53;;;;;;;4.47;4.00;;;;;;;;;;520869;28;1701;-81
2022/06/04 01:35:19;;;;;;;4.47;4.07;;;;;;;;;;519551;28;1458;-81
2022/06/04 01:35:48;;;;;;;4.47;4.07;;;;;;;;;;523375;28;1632;-81
2022/06/04 01:36:06;;;;;;;4.38;3.97;;;;;;;;;;525781;28;1615;-81
2022/06/04 01:36:38;;;;;;;5.35;3.90;;;;;;;;;;527313;28;1432;-81
2022/06/04 01:37:00;;;;;;;4.60;4.18;;;;;;;;;;526027;28;1602;-81
2022/06/04 01:37:26;;;;;;;4.72;4.32;;;;;;;;;;523868;28;1416;-81
2022/06/04 01:37:56;;;;;;;4.63;4.22;;;;;;;;;;521646;28;1719;-81
2022/06/04 01:38:18;;;;;;;4.70;4.30;;;;;;;;;;521714;28;1332;-81
2022/06/04 01:38:48;;;;;;;4.50;4.10;;;;;;;;;;522288;28;1682;-81
2022/06/04 01:39:10;;;;;;;4.43;4.03;;;;;;;;;;522820;28;1742;-81
2022/06/04 01:41:03;;;;;;;4.80;4.10;;;;;;;;;;522852;28;1410;-81
2022/06/04 01:41:04;;;;;;;4.70;4.20;;;;;;;;;;525344;28;1381;-81
2022/06/04 01:41:34;;;;;;;4.50;3.90;;;;;;;;;;524676;28;1469;-81
2022/06/04 01:42:02;;;;;;;4.82;4.00;;;;;;;;;;525311;28;1520;-81
2022/06/04 01:42:19;;;;;;;4.35;3.95;;;;;;;;;;524742;28;1472;-81
2022/06/04 01:42:36;;;;;;;4.40;3.78;;;;;;;;;;523757;28;1710;-81
2022/06/04 01:42:54;;;;;;;4.60;3.83;;;;;;;;;;520111;28;1530;-81
2022/06/04 01:43:12;;;;;;;4.22;3.90;;;;;;;;;;519670;28;1609;-81
2022/06/04 01:43:32;;;;;;;4.38;3.92;;;;;;;;;;517449;28;1464;-81
2022/06/04 01:43:52;;;;;;;5.60;4.07;;;;;;;;;;518245;28;1469;-81
2022/06/04 01:44:14;;;;;;;4.32;3.92;;;;;;;;;;518564;28;1543;-81
2022/06/04 01:44:34;;;;;;;4.10;3.70;;;;;;;;;;520126;28;1552;-81
2022/06/04 01:44:52;;;;;;;4.20;3.80;;;;;;;;;;522276;28;1617;-81
2022/06/04 01:45:10;;;;;;;4.60;4.03;;;;;;;;;;522405;28;1486;-81
2022/06/04 01:45:27;;;;;;;4.25;3.85;;;;;;;;;;523680;28;1565;-81
2022/06/04 01:45:45;;;;;;;4.20;3.83;;;;;;;;;;526379;28;2187;-81
2022/06/04 01:46:09;;;;;;;4.40;4.00;;;;;;;;;;526267;28;1732;-81
2022/06/04 01:46:27;;;;;;;4.47;3.95;;;;;;;;;;526634;28;1470;-81
2022/06/04 01:46:46;;;;;;;5.00;4.15;;;;;;;;;;525991;28;1520;-81
2022/06/04 01:47:06;;;;;;;5.85;4.30;;;;;;;;;;526630;28;1764;-81
2022/06/04 01:47:23;;;;;;;4.35;3.95;;;;;;;;;;526229;28;1559;-81
2022/06/04 01:47:40;;;;;;;4.50;3.85;;;;;;;;;;525741;28;1474;-82
2022/06/04 01:47:58;;;;;;;4.65;4.00;;;;;;;;;;526727;28;1565;-81
2022/06/04 01:48:18;;;;;;;5.50;3.90;;;;;;;;;;525974;28;1906;-81
2022/06/04 01:48:38;;;;;;;5.25;4.00;;;;;;;;;;527076;28;1659;-81
2022/06/04 01:48:58;;;;;;;4.78;4.30;;;;;;;;;;524647;28;1557;-81
2022/06/04 01:49:22;;;;;;;4.40;4.00;;;;;;;;;;524782;28;1400;-81
2022/06/04 01:49:45;;;;;;;4.30;3.90;;;;;;;;;;524964;28;1497;-81
2022/06/04 01:50:03;;;;;;;4.45;4.05;;;;;;;;;;524656;28;1526;-81
2022/06/04 01:50:23;;;;;;;4.20;3.80;;;;;;;;;;524540;28;1792;-81
2022/06/04 01:50:45;;;;;;;4.70;3.97;;;;;;;;;;524814;28;1586;-81
2022/06/04 01:51:03;;;;;;;4.50;3.95;;;;;;;;;;525127;28;1808;-81
2022/06/04 01:51:22;;;;;;;4.38;3.97;;;;;;;;;;525144;28;908;-81
2022/06/04 01:51:38;;;;;;;4.57;4.10;;;;;;;;;;526922;28;1666;-81
2022/06/04 01:51:58;;;;;;;4.13;3.72;;;;;;;;;;526366;28;1484;-81
2022/06/04 01:52:36;;;;;;;4.18;3.78;;;;;;;;;;525195;28;1488;-81
2022/06/04 01:52:53;;;;;;;4.20;3.80;;;;;;;;;;526177;28;1682;-81
2022/06/04 01:53:11;;;;;;;4.30;3.90;;;;;;;;;;526321;28;1468;-81
2022/06/04 01:53:33;;;;;;;4.38;3.97;;;;;;;;;;523428;28;1463;-81
2022/06/04 01:53:53;;;;;;;5.00;4.05;;;;;;;;;;524159;28;1442;-81
2022/06/04 01:54:17;;;;;;;5.20;4.13;;;;;;;;;;526125;28;1714;-80
2022/06/04 01:54:48;;;;;;;4.57;4.10;;;;;;;;;;523948;28;1705;-81
2022/06/04 01:55:30;;;;;;;4.43;4.03;;;;;;;;;;524161;28;1395;-81
2022/06/04 01:55:51;;;;;;;4.40;4.00;;;;;;;;;;521925;28;1405;-81
2022/06/04 01:56:12;;;;;;;4.57;3.92;;;;;;;;;;522456;28;1361;-81
2022/06/04 01:56:34;;;;;;;4.65;4.00;;;;;;;;;;522450;28;1786;-81
2022/06/04 01:56:53;;;;;;;4.45;3.90;;;;;;;;;;522447;28;1508;-81
2022/06/04 01:57:35;;;;;;;5.15;3.88;;;;;;;;;;524233;28;1467;-81
2022/06/04 01:58:00;;;;;;;4.70;3.90;;;;;;;;;;525636;28;1652;-81
2022/06/04 01:58:25;;;;;;;4.50;4.03;;;;;;;;;;526870;28;1447;-81
2022/06/04 01:58:47;;;;;;;4.35;3.95;;;;;;;;;;527491;28;1551;-81
2022/06/04 01:59:35;;;;;;;4.40;4.00;;;;;;;;;;526875;28;1499;-81
2022/06/04 01:59:54;;;;;;;4.28;3.88;;;;;;;;;;525865;28;1472;-81
2022/06/04 02:00:17;;;;;;;4.10;3.80;;;;;;;;;;525087;28;1646;-81
2022/06/04 02:00:54;;;;;;;4.65;3.80;;;;;;;;;;524694;28;1618;-81
2022/06/04 02:01:15;;;;;;;4.55;3.80;;;;;;;;;;523983;28;1542;-81
2022/06/04 02:01:33;;;;;;;4.97;3.90;;;;;;;;;;524998;28;1658;-81
2022/06/04 02:01:52;;;;;;;5.80;4.03;;;;;;;;;;522126;28;1648;-81
2022/06/04 02:02:13;;;;;;;6.05;4.10;;;;;;;;;;523063;28;1334;-81
2022/06/04 02:02:36;;;;;;;4.65;4.00;;;;;;;;;;524025;28;1428;-81
2022/06/04 02:02:57;;;;;;;4.82;4.05;;;;;;;;;;523055;28;1674;-81
2022/06/04 02:03:15;;;;;;;5.55;4.00;;;;;;;;;;520678;28;1488;-81
2022/06/04 02:03:42;;;;;;;5.60;4.25;;;;;;;;;;523241;28;1087;-81
2022/06/04 02:04:08;;;;;;;5.68;4.10;;;;;;;;;;522014;28;1644;-81
2022/06/04 02:04:28;;;;;;;4.70;4.25;;;;;;;;;;520009;28;1535;-81
2022/06/04 02:04:48;;;;;;;4.55;4.10;;;;;;;;;;522984;28;1402;-81
2022/06/04 02:05:07;;;;;;;4.78;4.18;;;;;;;;;;526052;28;1537;-81
2022/06/04 02:05:33;;;;;;;4.95;4.10;;;;;;;;;;522569;28;1547;-81
2022/06/04 02:05:50;;;;;;;5.00;4.18;;;;;;;;;;519049;28;1495;-81
2022/06/04 02:06:17;;;;;;;5.43;4.30;;;;;;;;;;520630;28;1462;-81
2022/06/04 02:06:40;;;;;;;4.55;4.00;;;;;;;;;;520609;28;1279;-81
2022/06/04 02:07:42;;;;;;;5.15;4.10;;;;;;;;;;523951;28;1482;-81
2022/06/04 02:08:01;;;;;;;5.57;4.28;;;;;;;;;;524278;28;1635;-81
2022/06/04 02:08:22;;;;;;;4.78;4.30;;;;;;;;;;522400;28;1941;-81
2022/06/04 02:08:44;;;;;;;4.70;4.22;;;;;;;;;;524145;28;1612;-81
2022/06/04 02:09:04;;;;;;;4.72;4.30;;;;;;;;;;521572;28;2246;-81
2022/06/04 02:09:20;;;;;;;4.82;4.38;;;;;;;;;;522670;28;1480;-81
2022/06/04 02:09:38;;;;;;;4.70;4.20;;;;;;;;;;522930;28;1461;-81
2022/06/04 02:09:59;;;;;;;4.50;4.10;;;;;;;;;;522378;28;1697;-81
2022/06/04 02:10:21;;;;;;;4.63;4.22;;;;;;;;;;523595;28;1819;-81
2022/06/04 02:10:42;;;;;;;5.32;4.38;;;;;;;;;;524098;28;1548;-81
2022/06/04 02:11:05;;;;;;;4.78;4.15;;;;;;;;;;523270;28;1659;-81
2022/06/04 02:11:23;;;;;;;4.80;4.40;;;;;;;;;;524428;28;1981;-81
2022/06/04 02:11:46;;;;;;;4.50;4.10;;;;;;;;;;526024;28;2167;-81
2022/06/04 02:12:04;;;;;;;4.93;4.20;;;;;;;;;;526259;28;1561;-81
2022/06/04 02:12:20;;;;;;;4.65;4.20;;;;;;;;;;523625;28;1904;-81
2022/06/04 02:12:41;;;;;;;4.40;4.00;;;;;;;;;;524224;28;1342;-81
2022/06/04 02:13:04;;;;;;;5.90;4.20;;;;;;;;;;523491;28;1771;-81
2022/06/04 02:13:19;;;;;;;5.40;4.40;;;;;;;;;;525161;28;1537;-81
2022/06/04 02:13:36;;;;;;;4.55;4.13;;;;;;;;;;525935;28;1481;-81
2022/06/04 02:13:55;;;;;;;4.50;4.10;;;;;;;;;;525650;28;1574;-81
2022/06/04 02:14:11;;;;;;;4.38;3.97;;;;;;;;;;523293;28;1518;-81
2022/06/04 02:14:27;;;;;;;4.37;3.97;;;;;;;;;;525192;28;1934;-81
2022/06/04 02:14:43;;;;;;;4.38;3.97;;;;;;;;;;524446;28;1413;-81
2022/06/04 02:15:00;;;;;;;4.60;4.20;;;;;;;;;;521319;28;1954;-81
2022/06/04 02:15:20;;;;;;;4.70;4.20;;;;;;;;;;523234;28;1513;-81
2022/06/04 02:15:41;;;;;;;4.57;4.15;;;;;;;;;;522088;28;1513;-81
2022/06/04 02:15:59;;;;;;;4.55;4.15;;;;;;;;;;522271;28;1808;-80
2022/06/04 02:16:15;;;;;;;4.55;4.15;;;;;;;;;;524344;28;1365;-80
2022/06/04 02:16:41;;;;;;;4.53;4.13;;;;;;;;;;524119;28;1529;-81
2022/06/04 02:17:09;;;;;;;4.60;4.20;;;;;;;;;;525273;28;1488;-81
2022/06/04 02:17:25;;;;;;;4.57;4.18;;;;;;;;;;526081;28;1644;-81
2022/06/04 02:17:47;;;;;;;4.60;4.05;;;;;;;;;;524516;28;1469;-81
2022/06/04 02:18:05;;;;;;;4.70;4.30;;;;;;;;;;524370;28;1427;-81
2022/06/04 02:18:21;;;;;;;4.55;4.07;;;;;;;;;;522154;28;1427;-81
2022/06/04 02:18:37;;;;;;;5.10;4.10;;;;;;;;;;524174;28;1788;-81
2022/06/04 02:18:56;;;;;;;4.63;4.10;;;;;;;;;;523670;28;1060;-81
2022/06/04 02:19:11;;;;;;;4.40;4.00;;;;;;;;;;522795;28;1509;-81
2022/06/04 02:19:27;;;;;;;5.22;4.35;;;;;;;;;;521915;28;1621;-81
2022/06/04 02:19:44;;;;;;;6.03;4.47;;;;;;;;;;519567;28;1448;-81